sensor_id;sensor_type;location;lat;lon;timestamp;P1;durP1;ratioP1;P2;durP2;ratioP2
52468;SDS011;38381;53.688;10.776;2023-03-03T00:02:50;19.00;;;14.77;;
52468;SDS011;38381;53.688;10.776;2023-03-03T00:07:50;19.13;;;14.05;;
52468;SDS011;38381;53.688;10.776;2023-03-03T00:12:51;20.38;;;15.18;;
52468;SDS011;38381;53.688;10.776;2023-03-03T00:17:51;17.98;;;16.17;;
52468;SDS011;38381;53.688;10.776;2023-03-03T00:22:52;20.63;;;15.20;;
52468;SDS011;38381;53.688;10.776;2023-03-03T00:27:52;20.57;;;15.33;;
52468;SDS011;38381;53.688;10.776;2023-03-03T00:32:53;17.40;;;13.80;;
52468;SDS011;38381;53.688;10.776;2023-03-03T00:37:56;18.45;;;13.07;;
52468;SDS011;38381;53.688;10.776;2023-03-03T00:42:59;21.52;;;14.85;;
52468;SDS011;38381;53.688;10.776;2023-03-03T00:48:02;19.70;;;15.65;;
52468;SDS011;38381;53.688;10.776;2023-03-03T00:53:28;22.67;;;17.08;;
52468;SDS011;38381;53.688;10.776;2023-03-03T00:58:29;22.08;;;16.73;;
52468;SDS011;38381;53.688;10.776;2023-03-03T01:03:30;20.20;;;14.82;;
52468;SDS011;38381;53.688;10.776;2023-03-03T01:08:31;25.92;;;17.88;;
52468;SDS011;38381;53.688;10.776;2023-03-03T01:13:32;27.02;;;17.50;;
52468;SDS011;38381;53.688;10.776;2023-03-03T01:18:34;23.13;;;17.00;;
52468;SDS011;38381;53.688;10.776;2023-03-03T01:23:35;24.75;;;16.85;;
52468;SDS011;38381;53.688;10.776;2023-03-03T01:28:37;27.05;;;18.40;;
52468;SDS011;38381;53.688;10.776;2023-03-03T01:33:37;67.32;;;23.00;;
52468;SDS011;38381;53.688;10.776;2023-03-03T01:38:38;21.40;;;17.23;;
52468;SDS011;38381;53.688;10.776;2023-03-03T01:43:42;23.73;;;17.02;;
52468;SDS011;38381;53.688;10.776;2023-03-03T01:48:44;24.23;;;18.33;;
52468;SDS011;38381;53.688;10.776;2023-03-03T01:53:47;24.00;;;17.75;;
52468;SDS011;38381;53.688;10.776;2023-03-03T01:59:00;21.73;;;17.20;;
52468;SDS011;38381;53.688;10.776;2023-03-03T02:04:04;20.98;;;16.63;;
52468;SDS011;38381;53.688;10.776;2023-03-03T02:09:08;22.48;;;16.60;;
52468;SDS011;38381;53.688;10.776;2023-03-03T02:14:13;18.65;;;14.18;;
52468;SDS011;38381;53.688;10.776;2023-03-03T02:19:22;20.38;;;16.40;;
52468;SDS011;38381;53.688;10.776;2023-03-03T02:29:32;18.90;;;15.80;;
52468;SDS011;38381;53.688;10.776;2023-03-03T02:34:46;20.77;;;16.02;;
52468;SDS011;38381;53.688;10.776;2023-03-03T02:39:51;19.73;;;15.73;;
52468;SDS011;38381;53.688;10.776;2023-03-03T02:44:51;18.08;;;15.65;;
52468;SDS011;38381;53.688;10.776;2023-03-03T02:49:52;22.98;;;16.58;;
52468;SDS011;38381;53.688;10.776;2023-03-03T02:54:52;22.92;;;14.82;;
52468;SDS011;38381;53.688;10.776;2023-03-03T02:59:53;16.10;;;14.63;;
52468;SDS011;38381;53.688;10.776;2023-03-03T03:04:53;18.27;;;14.63;;
52468;SDS011;38381;53.688;10.776;2023-03-03T03:09:53;19.57;;;15.43;;
52468;SDS011;38381;53.688;10.776;2023-03-03T03:14:54;21.08;;;16.92;;
52468;SDS011;38381;53.688;10.776;2023-03-03T03:19:55;22.08;;;15.68;;
52468;SDS011;38381;53.688;10.776;2023-03-03T03:24:55;21.37;;;14.03;;
52468;SDS011;38381;53.688;10.776;2023-03-03T03:29:56;20.05;;;14.02;;
52468;SDS011;38381;53.688;10.776;2023-03-03T03:34:57;22.15;;;15.27;;
52468;SDS011;38381;53.688;10.776;2023-03-03T03:39:57;19.77;;;15.63;;
52468;SDS011;38381;53.688;10.776;2023-03-03T03:44:57;18.67;;;13.93;;
52468;SDS011;38381;53.688;10.776;2023-03-03T03:49:58;15.65;;;13.70;;
52468;SDS011;38381;53.688;10.776;2023-03-03T03:54:58;16.38;;;14.60;;
52468;SDS011;38381;53.688;10.776;2023-03-03T03:59:58;17.25;;;14.40;;
52468;SDS011;38381;53.688;10.776;2023-03-03T04:04:59;15.40;;;13.13;;
52468;SDS011;38381;53.688;10.776;2023-03-03T04:10:00;15.05;;;13.30;;
52468;SDS011;38381;53.688;10.776;2023-03-03T04:15:00;15.10;;;13.57;;
52468;SDS011;38381;53.688;10.776;2023-03-03T04:20:00;13.65;;;12.25;;
52468;SDS011;38381;53.688;10.776;2023-03-03T04:25:02;14.52;;;12.73;;
52468;SDS011;38381;53.688;10.776;2023-03-03T04:30:04;20.20;;;15.00;;
52468;SDS011;38381;53.688;10.776;2023-03-03T04:35:05;13.50;;;12.10;;
52468;SDS011;38381;53.688;10.776;2023-03-03T04:40:07;14.05;;;12.65;;
52468;SDS011;38381;53.688;10.776;2023-03-03T04:45:08;15.77;;;14.23;;
52468;SDS011;38381;53.688;10.776;2023-03-03T04:50:09;14.13;;;12.32;;
52468;SDS011;38381;53.688;10.776;2023-03-03T04:55:10;17.42;;;14.07;;
52468;SDS011;38381;53.688;10.776;2023-03-03T05:00:11;15.90;;;13.00;;
52468;SDS011;38381;53.688;10.776;2023-03-03T05:05:12;15.32;;;13.70;;
52468;SDS011;38381;53.688;10.776;2023-03-03T05:10:13;14.73;;;13.15;;
52468;SDS011;38381;53.688;10.776;2023-03-03T05:15:13;17.33;;;13.25;;
52468;SDS011;38381;53.688;10.776;2023-03-03T05:20:14;15.95;;;12.93;;
52468;SDS011;38381;53.688;10.776;2023-03-03T05:25:15;15.57;;;12.35;;
52468;SDS011;38381;53.688;10.776;2023-03-03T05:30:15;15.20;;;13.65;;
52468;SDS011;38381;53.688;10.776;2023-03-03T05:35:16;20.42;;;13.15;;
52468;SDS011;38381;53.688;10.776;2023-03-03T05:40:16;14.68;;;11.88;;
52468;SDS011;38381;53.688;10.776;2023-03-03T05:45:18;16.35;;;13.82;;
52468;SDS011;38381;53.688;10.776;2023-03-03T05:50:23;15.10;;;13.50;;
52468;SDS011;38381;53.688;10.776;2023-03-03T05:55:24;17.33;;;13.43;;
52468;SDS011;38381;53.688;10.776;2023-03-03T06:00:24;17.23;;;14.30;;
52468;SDS011;38381;53.688;10.776;2023-03-03T06:05:25;15.63;;;13.88;;
52468;SDS011;38381;53.688;10.776;2023-03-03T06:10:25;18.45;;;13.27;;
52468;SDS011;38381;53.688;10.776;2023-03-03T06:15:26;15.50;;;13.77;;
52468;SDS011;38381;53.688;10.776;2023-03-03T06:20:26;16.00;;;14.10;;
52468;SDS011;38381;53.688;10.776;2023-03-03T06:25:27;16.15;;;13.18;;
52468;SDS011;38381;53.688;10.776;2023-03-03T06:30:27;15.38;;;13.63;;
52468;SDS011;38381;53.688;10.776;2023-03-03T06:35:29;15.90;;;13.27;;
52468;SDS011;38381;53.688;10.776;2023-03-03T06:40:30;15.82;;;13.32;;
52468;SDS011;38381;53.688;10.776;2023-03-03T06:45:30;20.38;;;15.73;;
52468;SDS011;38381;53.688;10.776;2023-03-03T06:50:30;17.98;;;12.88;;
52468;SDS011;38381;53.688;10.776;2023-03-03T06:55:31;14.43;;;12.93;;
52468;SDS011;38381;53.688;10.776;2023-03-03T07:00:31;14.88;;;12.48;;
52468;SDS011;38381;53.688;10.776;2023-03-03T07:05:32;20.50;;;14.00;;
52468;SDS011;38381;53.688;10.776;2023-03-03T07:10:33;16.63;;;13.20;;
52468;SDS011;38381;53.688;10.776;2023-03-03T07:15:34;16.75;;;12.80;;
52468;SDS011;38381;53.688;10.776;2023-03-03T07:20:35;20.05;;;12.23;;
52468;SDS011;38381;53.688;10.776;2023-03-03T07:25:38;21.52;;;13.70;;
52468;SDS011;38381;53.688;10.776;2023-03-03T07:30:38;14.15;;;12.70;;
52468;SDS011;38381;53.688;10.776;2023-03-03T07:35:40;16.75;;;13.20;;
52468;SDS011;38381;53.688;10.776;2023-03-03T07:40:46;14.85;;;12.52;;
52468;SDS011;38381;53.688;10.776;2023-03-03T07:45:51;13.32;;;12.02;;
52468;SDS011;38381;53.688;10.776;2023-03-03T07:50:52;13.50;;;11.30;;
52468;SDS011;38381;53.688;10.776;2023-03-03T07:55:52;13.77;;;11.82;;
52468;SDS011;38381;53.688;10.776;2023-03-03T08:11:35;14.18;;;12.82;;
52468;SDS011;38381;53.688;10.776;2023-03-03T08:16:45;13.52;;;11.40;;
52468;SDS011;38381;53.688;10.776;2023-03-03T08:21:46;13.23;;;11.93;;
52468;SDS011;38381;53.688;10.776;2023-03-03T08:26:46;12.43;;;11.23;;
52468;SDS011;38381;53.688;10.776;2023-03-03T08:31:47;14.88;;;11.55;;
52468;SDS011;38381;53.688;10.776;2023-03-03T08:36:47;14.43;;;12.15;;
52468;SDS011;38381;53.688;10.776;2023-03-03T08:41:48;12.63;;;11.00;;
52468;SDS011;38381;53.688;10.776;2023-03-03T08:46:49;12.70;;;11.43;;
52468;SDS011;38381;53.688;10.776;2023-03-03T08:51:49;12.70;;;11.23;;
52468;SDS011;38381;53.688;10.776;2023-03-03T08:56:51;15.43;;;13.45;;
52468;SDS011;38381;53.688;10.776;2023-03-03T09:01:52;14.23;;;12.27;;
52468;SDS011;38381;53.688;10.776;2023-03-03T09:06:52;13.07;;;11.77;;
52468;SDS011;38381;53.688;10.776;2023-03-03T09:12:05;14.88;;;11.52;;
52468;SDS011;38381;53.688;10.776;2023-03-03T09:17:18;13.00;;;11.70;;
52468;SDS011;38381;53.688;10.776;2023-03-03T09:22:33;14.27;;;10.32;;
52468;SDS011;38381;53.688;10.776;2023-03-03T09:27:37;12.48;;;10.75;;
52468;SDS011;38381;53.688;10.776;2023-03-03T09:32:37;13.93;;;12.30;;
52468;SDS011;38381;53.688;10.776;2023-03-03T09:37:42;11.93;;;10.63;;
52468;SDS011;38381;53.688;10.776;2023-03-03T09:53:32;11.98;;;10.73;;
52468;SDS011;38381;53.688;10.776;2023-03-03T10:04:10;11.38;;;10.02;;
52468;SDS011;38381;53.688;10.776;2023-03-03T10:14:49;14.68;;;10.60;;
52468;SDS011;38381;53.688;10.776;2023-03-03T10:25:12;12.77;;;10.85;;
52468;SDS011;38381;53.688;10.776;2023-03-03T10:41:13;15.25;;;11.80;;
52468;SDS011;38381;53.688;10.776;2023-03-03T11:07:45;11.30;;;9.32;;
52468;SDS011;38381;53.688;10.776;2023-03-03T11:18:33;12.18;;;10.98;;
52468;SDS011;38381;53.688;10.776;2023-03-03T11:34:18;9.05;;;7.63;;
52468;SDS011;38381;53.688;10.776;2023-03-03T11:39:31;8.25;;;7.30;;
52468;SDS011;38381;53.688;10.776;2023-03-03T11:49:57;7.95;;;7.10;;
52468;SDS011;38381;53.688;10.776;2023-03-03T11:55:03;9.85;;;7.68;;
52468;SDS011;38381;53.688;10.776;2023-03-03T12:10:48;7.03;;;5.95;;
52468;SDS011;38381;53.688;10.776;2023-03-03T12:16:03;8.35;;;6.13;;
52468;SDS011;38381;53.688;10.776;2023-03-03T12:32:03;10.95;;;6.88;;
52468;SDS011;38381;53.688;10.776;2023-03-03T12:38:03;7.93;;;7.07;;
52468;SDS011;38381;53.688;10.776;2023-03-03T12:48:17;8.65;;;6.30;;
52468;SDS011;38381;53.688;10.776;2023-03-03T12:58:53;7.43;;;6.60;;
52468;SDS011;38381;53.688;10.776;2023-03-03T13:15:27;6.50;;;4.55;;
52468;SDS011;38381;53.688;10.776;2023-03-03T13:30:49;6.80;;;5.93;;
52468;SDS011;38381;53.688;10.776;2023-03-03T13:35:58;10.05;;;6.57;;
52468;SDS011;38381;53.688;10.776;2023-03-03T14:07:27;5.88;;;4.78;;
52468;SDS011;38381;53.688;10.776;2023-03-03T14:17:44;5.90;;;5.30;;
52468;SDS011;38381;53.688;10.776;2023-03-03T14:22:58;6.80;;;5.72;;
52468;SDS011;38381;53.688;10.776;2023-03-03T14:28:04;6.85;;;5.30;;
52468;SDS011;38381;53.688;10.776;2023-03-03T14:38:14;7.10;;;5.88;;
52468;SDS011;38381;53.688;10.776;2023-03-03T14:43:24;6.75;;;4.43;;
52468;SDS011;38381;53.688;10.776;2023-03-03T14:48:26;5.60;;;4.53;;
52468;SDS011;38381;53.688;10.776;2023-03-03T14:53:32;9.15;;;4.97;;
52468;SDS011;38381;53.688;10.776;2023-03-03T14:58:39;7.82;;;3.97;;
52468;SDS011;38381;53.688;10.776;2023-03-03T15:03:58;3.28;;;2.92;;
52468;SDS011;38381;53.688;10.776;2023-03-03T15:14:42;3.53;;;2.17;;
52468;SDS011;38381;53.688;10.776;2023-03-03T15:25:00;3.30;;;2.05;;
52468;SDS011;38381;53.688;10.776;2023-03-03T15:30:24;4.03;;;2.40;;
52468;SDS011;38381;53.688;10.776;2023-03-03T15:35:35;3.75;;;2.17;;
52468;SDS011;38381;53.688;10.776;2023-03-03T15:40:47;2.40;;;1.98;;
52468;SDS011;38381;53.688;10.776;2023-03-03T15:51:13;8.07;;;3.45;;
52468;SDS011;38381;53.688;10.776;2023-03-03T16:01:41;3.13;;;2.65;;
52468;SDS011;38381;53.688;10.776;2023-03-03T16:17:58;5.88;;;2.90;;
52468;SDS011;38381;53.688;10.776;2023-03-03T16:23:29;4.93;;;2.60;;
52468;SDS011;38381;53.688;10.776;2023-03-03T16:39:02;9.13;;;4.22;;
52468;SDS011;38381;53.688;10.776;2023-03-03T16:49:32;6.85;;;3.00;;
52468;SDS011;38381;53.688;10.776;2023-03-03T17:10:35;7.47;;;4.95;;
52468;SDS011;38381;53.688;10.776;2023-03-03T17:16:01;13.63;;;3.90;;
52468;SDS011;38381;53.688;10.776;2023-03-03T17:22:01;9.65;;;4.75;;
52468;SDS011;38381;53.688;10.776;2023-03-03T17:32:00;17.23;;;5.10;;
52468;SDS011;38381;53.688;10.776;2023-03-03T17:52:55;11.77;;;4.80;;
52468;SDS011;38381;53.688;10.776;2023-03-03T18:08:54;17.15;;;5.50;;
52468;SDS011;38381;53.688;10.776;2023-03-03T18:25:00;14.18;;;4.82;;
52468;SDS011;38381;53.688;10.776;2023-03-03T18:35:42;9.70;;;5.25;;
52468;SDS011;38381;53.688;10.776;2023-03-03T18:41:03;8.77;;;4.78;;
52468;SDS011;38381;53.688;10.776;2023-03-03T18:52:12;14.25;;;5.53;;
52468;SDS011;38381;53.688;10.776;2023-03-03T19:01:52;9.95;;;5.65;;
52468;SDS011;38381;53.688;10.776;2023-03-03T19:06:54;10.27;;;5.47;;
52468;SDS011;38381;53.688;10.776;2023-03-03T19:16:57;9.07;;;4.13;;
52468;SDS011;38381;53.688;10.776;2023-03-03T19:22:30;18.92;;;6.15;;
52468;SDS011;38381;53.688;10.776;2023-03-03T19:33:04;6.50;;;5.88;;
52468;SDS011;38381;53.688;10.776;2023-03-03T19:38:20;12.10;;;5.10;;
52468;SDS011;38381;53.688;10.776;2023-03-03T19:43:52;17.30;;;5.88;;
52468;SDS011;38381;53.688;10.776;2023-03-03T19:55:01;9.57;;;4.47;;
52468;SDS011;38381;53.688;10.776;2023-03-03T20:00:29;13.15;;;5.75;;
52468;SDS011;38381;53.688;10.776;2023-03-03T20:05:47;11.63;;;5.55;;
52468;SDS011;38381;53.688;10.776;2023-03-03T20:10:58;17.45;;;7.55;;
52468;SDS011;38381;53.688;10.776;2023-03-03T20:16:22;10.10;;;6.25;;
52468;SDS011;38381;53.688;10.776;2023-03-03T20:32:09;15.15;;;5.60;;
52468;SDS011;38381;53.688;10.776;2023-03-03T20:37:22;13.38;;;6.03;;
52468;SDS011;38381;53.688;10.776;2023-03-03T20:42:38;12.55;;;4.63;;
52468;SDS011;38381;53.688;10.776;2023-03-03T20:53:23;11.07;;;5.55;;
52468;SDS011;38381;53.688;10.776;2023-03-03T21:03:52;17.08;;;6.35;;
52468;SDS011;38381;53.688;10.776;2023-03-03T21:08:54;10.65;;;6.18;;
52468;SDS011;38381;53.688;10.776;2023-03-03T21:13:56;11.80;;;6.60;;
52468;SDS011;38381;53.688;10.776;2023-03-03T21:24:04;14.30;;;6.15;;
52468;SDS011;38381;53.688;10.776;2023-03-03T21:29:05;12.88;;;6.97;;
52468;SDS011;38381;53.688;10.776;2023-03-03T21:34:16;30.17;;;8.48;;
52468;SDS011;38381;53.688;10.776;2023-03-03T21:39:25;12.77;;;6.30;;
52468;SDS011;38381;53.688;10.776;2023-03-03T21:49:34;8.93;;;4.80;;
52468;SDS011;38381;53.688;10.776;2023-03-03T21:54:34;14.00;;;4.95;;
52468;SDS011;38381;53.688;10.776;2023-03-03T21:59:35;17.63;;;5.45;;
52468;SDS011;38381;53.688;10.776;2023-03-03T22:04:36;16.70;;;6.57;;
52468;SDS011;38381;53.688;10.776;2023-03-03T22:09:40;8.90;;;4.68;;
52468;SDS011;38381;53.688;10.776;2023-03-03T22:14:40;15.35;;;6.68;;
52468;SDS011;38381;53.688;10.776;2023-03-03T22:19:41;10.43;;;5.40;;
52468;SDS011;38381;53.688;10.776;2023-03-03T22:24:41;16.55;;;6.35;;
52468;SDS011;38381;53.688;10.776;2023-03-03T22:29:41;12.52;;;4.32;;
52468;SDS011;38381;53.688;10.776;2023-03-03T22:34:42;8.50;;;4.77;;
52468;SDS011;38381;53.688;10.776;2023-03-03T22:39:42;12.18;;;5.53;;
52468;SDS011;38381;53.688;10.776;2023-03-03T22:44:42;5.53;;;4.75;;
52468;SDS011;38381;53.688;10.776;2023-03-03T22:49:43;13.20;;;4.88;;
52468;SDS011;38381;53.688;10.776;2023-03-03T22:54:43;6.40;;;3.72;;
52468;SDS011;38381;53.688;10.776;2023-03-03T22:59:44;9.88;;;4.88;;
52468;SDS011;38381;53.688;10.776;2023-03-03T23:04:44;10.35;;;4.70;;
52468;SDS011;38381;53.688;10.776;2023-03-03T23:09:44;11.02;;;4.20;;
52468;SDS011;38381;53.688;10.776;2023-03-03T23:14:45;6.65;;;4.32;;
52468;SDS011;38381;53.688;10.776;2023-03-03T23:19:45;17.10;;;5.32;;
52468;SDS011;38381;53.688;10.776;2023-03-03T23:24:47;8.60;;;4.20;;
52468;SDS011;38381;53.688;10.776;2023-03-03T23:29:48;18.90;;;6.05;;
52468;SDS011;38381;53.688;10.776;2023-03-03T23:34:49;15.65;;;5.32;;
52468;SDS011;38381;53.688;10.776;2023-03-03T23:39:50;11.05;;;4.07;;
52468;SDS011;38381;53.688;10.776;2023-03-03T23:44:50;16.73;;;4.43;;
52468;SDS011;38381;53.688;10.776;2023-03-03T23:49:51;11.73;;;4.82;;
52468;SDS011;38381;53.688;10.776;2023-03-03T23:54:51;12.75;;;5.43;;
52468;SDS011;38381;53.688;10.776;2023-03-03T23:59:52;7.18;;;3.92;;
